sensor_id;sensor_type;location;lat;lon;timestamp;P1;durP1;ratioP1;P2;durP2;ratioP2
3207;SDS011;1616;52.394;9.756;2024-03-22T00:00:43;13.60;;;12.00;;
3207;SDS011;1616;52.394;9.756;2024-03-22T00:03:08;14.30;;;12.37;;
3207;SDS011;1616;52.394;9.756;2024-03-22T00:05:34;16.20;;;12.87;;
3207;SDS011;1616;52.394;9.756;2024-03-22T00:07:59;17.03;;;12.90;;
3207;SDS011;1616;52.394;9.756;2024-03-22T00:10:25;17.40;;;13.23;;
3207;SDS011;1616;52.394;9.756;2024-03-22T00:12:50;19.27;;;14.47;;
3207;SDS011;1616;52.394;9.756;2024-03-22T00:15:16;23.37;;;14.00;;
3207;SDS011;1616;52.394;9.756;2024-03-22T00:17:42;20.23;;;14.17;;
3207;SDS011;1616;52.394;9.756;2024-03-22T00:20:09;22.53;;;15.60;;
3207;SDS011;1616;52.394;9.756;2024-03-22T00:22:35;18.80;;;14.53;;
3207;SDS011;1616;52.394;9.756;2024-03-22T00:25:01;17.87;;;14.43;;
3207;SDS011;1616;52.394;9.756;2024-03-22T00:27:26;21.20;;;15.10;;
3207;SDS011;1616;52.394;9.756;2024-03-22T00:29:52;21.60;;;15.23;;
3207;SDS011;1616;52.394;9.756;2024-03-22T00:32:18;22.40;;;14.90;;
3207;SDS011;1616;52.394;9.756;2024-03-22T00:34:43;22.33;;;14.93;;
3207;SDS011;1616;52.394;9.756;2024-03-22T00:37:10;24.70;;;18.30;;
3207;SDS011;1616;52.394;9.756;2024-03-22T00:39:35;31.40;;;18.57;;
3207;SDS011;1616;52.394;9.756;2024-03-22T00:42:02;30.20;;;17.33;;
3207;SDS011;1616;52.394;9.756;2024-03-22T00:44:28;27.03;;;17.17;;
3207;SDS011;1616;52.394;9.756;2024-03-22T00:46:54;27.60;;;18.97;;
3207;SDS011;1616;52.394;9.756;2024-03-22T00:49:19;30.27;;;19.70;;
3207;SDS011;1616;52.394;9.756;2024-03-22T00:51:45;30.67;;;20.03;;
3207;SDS011;1616;52.394;9.756;2024-03-22T00:54:12;31.57;;;20.93;;
3207;SDS011;1616;52.394;9.756;2024-03-22T00:56:37;31.33;;;22.27;;
3207;SDS011;1616;52.394;9.756;2024-03-22T00:59:03;32.13;;;20.93;;
3207;SDS011;1616;52.394;9.756;2024-03-22T01:01:28;32.77;;;20.90;;
3207;SDS011;1616;52.394;9.756;2024-03-22T01:03:54;32.57;;;21.87;;
3207;SDS011;1616;52.394;9.756;2024-03-22T01:06:20;37.07;;;22.80;;
3207;SDS011;1616;52.394;9.756;2024-03-22T01:08:51;35.63;;;22.67;;
3207;SDS011;1616;52.394;9.756;2024-03-22T01:11:20;36.57;;;23.30;;
3207;SDS011;1616;52.394;9.756;2024-03-22T01:13:46;39.23;;;24.70;;
3207;SDS011;1616;52.394;9.756;2024-03-22T01:16:11;37.80;;;23.63;;
3207;SDS011;1616;52.394;9.756;2024-03-22T01:18:37;44.37;;;23.90;;
3207;SDS011;1616;52.394;9.756;2024-03-22T01:21:04;39.10;;;26.40;;
3207;SDS011;1616;52.394;9.756;2024-03-22T01:23:31;40.80;;;26.07;;
3207;SDS011;1616;52.394;9.756;2024-03-22T01:25:58;35.63;;;23.50;;
3207;SDS011;1616;52.394;9.756;2024-03-22T01:28:23;40.03;;;25.60;;
3207;SDS011;1616;52.394;9.756;2024-03-22T01:30:49;39.30;;;23.07;;
3207;SDS011;1616;52.394;9.756;2024-03-22T01:33:14;47.40;;;25.53;;
3207;SDS011;1616;52.394;9.756;2024-03-22T01:35:40;38.67;;;23.17;;
3207;SDS011;1616;52.394;9.756;2024-03-22T01:38:07;47.20;;;25.57;;
3207;SDS011;1616;52.394;9.756;2024-03-22T01:40:32;41.43;;;26.23;;
3207;SDS011;1616;52.394;9.756;2024-03-22T01:42:59;35.00;;;25.37;;
3207;SDS011;1616;52.394;9.756;2024-03-22T01:45:25;40.50;;;26.80;;
3207;SDS011;1616;52.394;9.756;2024-03-22T01:47:51;40.40;;;25.50;;
3207;SDS011;1616;52.394;9.756;2024-03-22T01:50:21;54.00;;;26.73;;
3207;SDS011;1616;52.394;9.756;2024-03-22T01:52:47;43.03;;;26.83;;
3207;SDS011;1616;52.394;9.756;2024-03-22T01:55:13;45.67;;;26.60;;
3207;SDS011;1616;52.394;9.756;2024-03-22T01:57:39;44.23;;;27.77;;
3207;SDS011;1616;52.394;9.756;2024-03-22T02:00:06;42.30;;;25.40;;
3207;SDS011;1616;52.394;9.756;2024-03-22T02:02:34;45.80;;;27.30;;
3207;SDS011;1616;52.394;9.756;2024-03-22T02:04:59;41.93;;;26.70;;
3207;SDS011;1616;52.394;9.756;2024-03-22T02:07:37;51.27;;;26.07;;
3207;SDS011;1616;52.394;9.756;2024-03-22T02:10:03;48.40;;;27.00;;
3207;SDS011;1616;52.394;9.756;2024-03-22T02:12:30;48.07;;;25.50;;
3207;SDS011;1616;52.394;9.756;2024-03-22T02:14:58;36.80;;;24.00;;
3207;SDS011;1616;52.394;9.756;2024-03-22T02:17:24;45.80;;;28.27;;
3207;SDS011;1616;52.394;9.756;2024-03-22T02:19:50;40.07;;;25.93;;
3207;SDS011;1616;52.394;9.756;2024-03-22T02:22:15;41.10;;;25.40;;
3207;SDS011;1616;52.394;9.756;2024-03-22T02:24:42;44.87;;;25.90;;
3207;SDS011;1616;52.394;9.756;2024-03-22T02:27:07;46.13;;;26.63;;
3207;SDS011;1616;52.394;9.756;2024-03-22T02:29:34;45.03;;;28.47;;
3207;SDS011;1616;52.394;9.756;2024-03-22T02:32:00;45.13;;;26.20;;
3207;SDS011;1616;52.394;9.756;2024-03-22T02:34:25;37.30;;;23.67;;
3207;SDS011;1616;52.394;9.756;2024-03-22T02:36:53;40.30;;;25.47;;
3207;SDS011;1616;52.394;9.756;2024-03-22T02:39:18;44.87;;;25.17;;
3207;SDS011;1616;52.394;9.756;2024-03-22T02:41:44;37.97;;;25.73;;
3207;SDS011;1616;52.394;9.756;2024-03-22T02:44:10;43.53;;;25.87;;
3207;SDS011;1616;52.394;9.756;2024-03-22T02:46:36;40.03;;;25.00;;
3207;SDS011;1616;52.394;9.756;2024-03-22T02:49:01;43.37;;;25.93;;
3207;SDS011;1616;52.394;9.756;2024-03-22T02:51:27;46.27;;;27.20;;
3207;SDS011;1616;52.394;9.756;2024-03-22T02:53:52;43.83;;;26.00;;
3207;SDS011;1616;52.394;9.756;2024-03-22T02:56:18;48.67;;;26.80;;
3207;SDS011;1616;52.394;9.756;2024-03-22T02:58:43;43.60;;;26.67;;
3207;SDS011;1616;52.394;9.756;2024-03-22T03:01:09;45.53;;;24.70;;
3207;SDS011;1616;52.394;9.756;2024-03-22T03:03:35;41.57;;;25.47;;
3207;SDS011;1616;52.394;9.756;2024-03-22T03:06:02;43.43;;;25.77;;
3207;SDS011;1616;52.394;9.756;2024-03-22T03:08:29;48.90;;;28.93;;
3207;SDS011;1616;52.394;9.756;2024-03-22T03:10:55;41.83;;;25.13;;
3207;SDS011;1616;52.394;9.756;2024-03-22T03:13:21;38.30;;;24.70;;
3207;SDS011;1616;52.394;9.756;2024-03-22T03:15:48;47.57;;;28.73;;
3207;SDS011;1616;52.394;9.756;2024-03-22T03:18:14;44.93;;;27.50;;
3207;SDS011;1616;52.394;9.756;2024-03-22T03:20:39;46.37;;;28.43;;
3207;SDS011;1616;52.394;9.756;2024-03-22T03:23:05;46.07;;;27.73;;
3207;SDS011;1616;52.394;9.756;2024-03-22T03:25:31;43.60;;;27.07;;
3207;SDS011;1616;52.394;9.756;2024-03-22T03:27:58;47.27;;;28.30;;
3207;SDS011;1616;52.394;9.756;2024-03-22T03:30:24;46.33;;;27.13;;
3207;SDS011;1616;52.394;9.756;2024-03-22T03:32:49;46.67;;;28.03;;
3207;SDS011;1616;52.394;9.756;2024-03-22T03:35:16;46.50;;;27.60;;
3207;SDS011;1616;52.394;9.756;2024-03-22T03:37:42;53.77;;;30.13;;
3207;SDS011;1616;52.394;9.756;2024-03-22T03:40:07;55.03;;;28.57;;
3207;SDS011;1616;52.394;9.756;2024-03-22T03:42:33;52.40;;;29.00;;
3207;SDS011;1616;52.394;9.756;2024-03-22T03:44:59;54.90;;;27.27;;
3207;SDS011;1616;52.394;9.756;2024-03-22T03:47:25;48.80;;;28.87;;
3207;SDS011;1616;52.394;9.756;2024-03-22T03:49:50;53.20;;;29.00;;
3207;SDS011;1616;52.394;9.756;2024-03-22T03:52:17;59.17;;;30.37;;
3207;SDS011;1616;52.394;9.756;2024-03-22T03:54:43;78.30;;;31.03;;
3207;SDS011;1616;52.394;9.756;2024-03-22T03:57:10;49.00;;;27.47;;
3207;SDS011;1616;52.394;9.756;2024-03-22T03:59:35;50.70;;;27.90;;
3207;SDS011;1616;52.394;9.756;2024-03-22T04:02:01;51.80;;;28.37;;
3207;SDS011;1616;52.394;9.756;2024-03-22T04:04:27;49.87;;;28.13;;
3207;SDS011;1616;52.394;9.756;2024-03-22T04:06:52;58.40;;;29.13;;
3207;SDS011;1616;52.394;9.756;2024-03-22T04:09:19;59.00;;;32.97;;
3207;SDS011;1616;52.394;9.756;2024-03-22T04:11:44;52.87;;;30.13;;
3207;SDS011;1616;52.394;9.756;2024-03-22T04:14:10;55.40;;;29.07;;
3207;SDS011;1616;52.394;9.756;2024-03-22T04:16:35;56.77;;;31.87;;
3207;SDS011;1616;52.394;9.756;2024-03-22T04:19:01;52.40;;;29.40;;
3207;SDS011;1616;52.394;9.756;2024-03-22T04:21:28;63.13;;;30.90;;
3207;SDS011;1616;52.394;9.756;2024-03-22T04:23:54;53.10;;;30.07;;
3207;SDS011;1616;52.394;9.756;2024-03-22T04:26:20;55.03;;;29.80;;
3207;SDS011;1616;52.394;9.756;2024-03-22T04:28:46;58.93;;;30.17;;
3207;SDS011;1616;52.394;9.756;2024-03-22T04:31:12;56.50;;;30.97;;
3207;SDS011;1616;52.394;9.756;2024-03-22T04:33:38;59.57;;;30.00;;
3207;SDS011;1616;52.394;9.756;2024-03-22T04:36:03;52.80;;;30.77;;
3207;SDS011;1616;52.394;9.756;2024-03-22T04:38:29;59.47;;;29.30;;
3207;SDS011;1616;52.394;9.756;2024-03-22T04:40:56;58.00;;;30.90;;
3207;SDS011;1616;52.394;9.756;2024-03-22T04:43:23;59.23;;;30.87;;
3207;SDS011;1616;52.394;9.756;2024-03-22T04:45:50;66.87;;;31.20;;
3207;SDS011;1616;52.394;9.756;2024-03-22T04:48:18;58.93;;;31.87;;
3207;SDS011;1616;52.394;9.756;2024-03-22T04:50:45;59.20;;;31.40;;
3207;SDS011;1616;52.394;9.756;2024-03-22T04:53:10;67.80;;;31.87;;
3207;SDS011;1616;52.394;9.756;2024-03-22T04:55:37;60.43;;;32.77;;
3207;SDS011;1616;52.394;9.756;2024-03-22T04:58:03;65.83;;;31.57;;
3207;SDS011;1616;52.394;9.756;2024-03-22T05:00:30;64.77;;;32.40;;
3207;SDS011;1616;52.394;9.756;2024-03-22T05:02:56;54.30;;;30.20;;
3207;SDS011;1616;52.394;9.756;2024-03-22T05:05:21;55.93;;;31.87;;
3207;SDS011;1616;52.394;9.756;2024-03-22T05:07:47;68.50;;;34.37;;
3207;SDS011;1616;52.394;9.756;2024-03-22T05:10:12;61.10;;;31.30;;
3207;SDS011;1616;52.394;9.756;2024-03-22T05:12:39;63.00;;;32.30;;
3207;SDS011;1616;52.394;9.756;2024-03-22T05:15:06;67.47;;;34.70;;
3207;SDS011;1616;52.394;9.756;2024-03-22T05:17:32;62.27;;;32.20;;
3207;SDS011;1616;52.394;9.756;2024-03-22T05:20:00;67.23;;;30.47;;
3207;SDS011;1616;52.394;9.756;2024-03-22T05:22:27;68.33;;;30.40;;
3207;SDS011;1616;52.394;9.756;2024-03-22T05:24:52;64.73;;;31.57;;
3207;SDS011;1616;52.394;9.756;2024-03-22T05:27:18;64.10;;;29.50;;
3207;SDS011;1616;52.394;9.756;2024-03-22T05:29:44;70.20;;;31.27;;
3207;SDS011;1616;52.394;9.756;2024-03-22T05:32:09;68.77;;;28.77;;
3207;SDS011;1616;52.394;9.756;2024-03-22T05:34:35;60.53;;;31.17;;
3207;SDS011;1616;52.394;9.756;2024-03-22T05:37:02;63.57;;;30.83;;
3207;SDS011;1616;52.394;9.756;2024-03-22T05:39:28;62.13;;;30.80;;
3207;SDS011;1616;52.394;9.756;2024-03-22T05:41:55;60.33;;;29.97;;
3207;SDS011;1616;52.394;9.756;2024-03-22T05:44:24;56.90;;;29.67;;
3207;SDS011;1616;52.394;9.756;2024-03-22T05:46:49;60.70;;;30.30;;
3207;SDS011;1616;52.394;9.756;2024-03-22T05:49:16;61.87;;;30.70;;
3207;SDS011;1616;52.394;9.756;2024-03-22T05:51:42;59.70;;;30.27;;
3207;SDS011;1616;52.394;9.756;2024-03-22T05:54:07;58.30;;;28.70;;
3207;SDS011;1616;52.394;9.756;2024-03-22T05:56:34;60.57;;;30.17;;
3207;SDS011;1616;52.394;9.756;2024-03-22T05:59:00;64.50;;;30.90;;
3207;SDS011;1616;52.394;9.756;2024-03-22T06:01:25;49.43;;;27.90;;
3207;SDS011;1616;52.394;9.756;2024-03-22T06:03:51;61.90;;;29.90;;
3207;SDS011;1616;52.394;9.756;2024-03-22T06:06:17;68.30;;;30.20;;
3207;SDS011;1616;52.394;9.756;2024-03-22T06:08:43;58.97;;;30.50;;
3207;SDS011;1616;52.394;9.756;2024-03-22T06:11:10;61.60;;;30.40;;
3207;SDS011;1616;52.394;9.756;2024-03-22T06:13:36;57.20;;;28.07;;
3207;SDS011;1616;52.394;9.756;2024-03-22T06:16:02;56.13;;;29.50;;
3207;SDS011;1616;52.394;9.756;2024-03-22T06:18:28;51.57;;;27.67;;
3207;SDS011;1616;52.394;9.756;2024-03-22T06:20:54;56.93;;;28.30;;
3207;SDS011;1616;52.394;9.756;2024-03-22T06:23:23;47.67;;;27.27;;
3207;SDS011;1616;52.394;9.756;2024-03-22T06:25:52;50.93;;;26.37;;
3207;SDS011;1616;52.394;9.756;2024-03-22T06:28:18;57.80;;;27.97;;
3207;SDS011;1616;52.394;9.756;2024-03-22T06:30:43;47.90;;;26.83;;
3207;SDS011;1616;52.394;9.756;2024-03-22T06:33:09;48.47;;;25.90;;
3207;SDS011;1616;52.394;9.756;2024-03-22T06:35:34;53.20;;;28.50;;
3207;SDS011;1616;52.394;9.756;2024-03-22T06:38:00;52.50;;;27.33;;
3207;SDS011;1616;52.394;9.756;2024-03-22T06:40:27;48.60;;;26.37;;
3207;SDS011;1616;52.394;9.756;2024-03-22T06:42:53;54.60;;;28.10;;
3207;SDS011;1616;52.394;9.756;2024-03-22T06:45:19;48.10;;;26.27;;
3207;SDS011;1616;52.394;9.756;2024-03-22T06:47:45;44.53;;;26.37;;
3207;SDS011;1616;52.394;9.756;2024-03-22T06:50:13;51.60;;;28.47;;
3207;SDS011;1616;52.394;9.756;2024-03-22T06:52:38;49.20;;;25.80;;
3207;SDS011;1616;52.394;9.756;2024-03-22T06:55:04;46.27;;;26.23;;
3207;SDS011;1616;52.394;9.756;2024-03-22T06:57:31;47.93;;;27.03;;
3207;SDS011;1616;52.394;9.756;2024-03-22T06:59:59;49.23;;;26.00;;
3207;SDS011;1616;52.394;9.756;2024-03-22T07:02:24;52.17;;;27.50;;
3207;SDS011;1616;52.394;9.756;2024-03-22T07:04:50;49.73;;;27.17;;
3207;SDS011;1616;52.394;9.756;2024-03-22T07:07:17;52.50;;;27.10;;
3207;SDS011;1616;52.394;9.756;2024-03-22T07:09:43;41.30;;;26.67;;
3207;SDS011;1616;52.394;9.756;2024-03-22T07:12:09;46.47;;;25.00;;
3207;SDS011;1616;52.394;9.756;2024-03-22T07:14:34;42.43;;;25.10;;
3207;SDS011;1616;52.394;9.756;2024-03-22T07:17:00;45.73;;;24.70;;
3207;SDS011;1616;52.394;9.756;2024-03-22T07:19:25;44.70;;;25.50;;
3207;SDS011;1616;52.394;9.756;2024-03-22T07:21:53;48.63;;;26.93;;
3207;SDS011;1616;52.394;9.756;2024-03-22T07:24:19;46.93;;;24.40;;
3207;SDS011;1616;52.394;9.756;2024-03-22T07:26:48;43.53;;;23.40;;
3207;SDS011;1616;52.394;9.756;2024-03-22T07:29:14;40.60;;;23.23;;
3207;SDS011;1616;52.394;9.756;2024-03-22T07:31:40;41.87;;;23.87;;
3207;SDS011;1616;52.394;9.756;2024-03-22T07:34:07;33.67;;;21.47;;
3207;SDS011;1616;52.394;9.756;2024-03-22T07:36:37;43.30;;;21.13;;
3207;SDS011;1616;52.394;9.756;2024-03-22T07:39:03;30.80;;;19.50;;
3207;SDS011;1616;52.394;9.756;2024-03-22T07:41:31;33.70;;;21.47;;
3207;SDS011;1616;52.394;9.756;2024-03-22T07:43:58;31.57;;;19.60;;
3207;SDS011;1616;52.394;9.756;2024-03-22T07:46:26;38.50;;;21.20;;
3207;SDS011;1616;52.394;9.756;2024-03-22T07:48:52;32.20;;;20.60;;
3207;SDS011;1616;52.394;9.756;2024-03-22T07:51:18;33.03;;;21.47;;
3207;SDS011;1616;52.394;9.756;2024-03-22T07:53:44;30.67;;;19.97;;
3207;SDS011;1616;52.394;9.756;2024-03-22T07:56:10;31.07;;;21.00;;
3207;SDS011;1616;52.394;9.756;2024-03-22T07:58:36;28.97;;;19.50;;
3207;SDS011;1616;52.394;9.756;2024-03-22T08:01:03;32.93;;;19.70;;
3207;SDS011;1616;52.394;9.756;2024-03-22T08:03:28;29.40;;;20.43;;
3207;SDS011;1616;52.394;9.756;2024-03-22T08:05:54;26.87;;;17.97;;
3207;SDS011;1616;52.394;9.756;2024-03-22T08:08:22;27.33;;;19.50;;
3207;SDS011;1616;52.394;9.756;2024-03-22T08:10:47;27.43;;;19.80;;
3207;SDS011;1616;52.394;9.756;2024-03-22T08:13:13;28.27;;;18.60;;
3207;SDS011;1616;52.394;9.756;2024-03-22T08:15:38;29.13;;;19.53;;
3207;SDS011;1616;52.394;9.756;2024-03-22T08:18:06;30.20;;;19.20;;
3207;SDS011;1616;52.394;9.756;2024-03-22T08:20:32;30.50;;;18.77;;
3207;SDS011;1616;52.394;9.756;2024-03-22T08:22:59;32.47;;;20.40;;
3207;SDS011;1616;52.394;9.756;2024-03-22T08:25:25;28.60;;;19.30;;
3207;SDS011;1616;52.394;9.756;2024-03-22T08:27:51;28.07;;;18.67;;
3207;SDS011;1616;52.394;9.756;2024-03-22T08:30:20;35.03;;;18.53;;
3207;SDS011;1616;52.394;9.756;2024-03-22T08:32:46;30.07;;;19.60;;
3207;SDS011;1616;52.394;9.756;2024-03-22T08:35:12;24.30;;;17.17;;
3207;SDS011;1616;52.394;9.756;2024-03-22T08:37:39;29.13;;;17.70;;
3207;SDS011;1616;52.394;9.756;2024-03-22T08:40:04;25.27;;;18.10;;
3207;SDS011;1616;52.394;9.756;2024-03-22T08:42:31;25.27;;;17.70;;
3207;SDS011;1616;52.394;9.756;2024-03-22T08:44:57;30.17;;;17.93;;
3207;SDS011;1616;52.394;9.756;2024-03-22T08:47:22;25.03;;;17.87;;
3207;SDS011;1616;52.394;9.756;2024-03-22T08:49:48;29.80;;;18.67;;
3207;SDS011;1616;52.394;9.756;2024-03-22T08:52:14;22.70;;;16.63;;
3207;SDS011;1616;52.394;9.756;2024-03-22T08:54:40;22.03;;;16.53;;
3207;SDS011;1616;52.394;9.756;2024-03-22T08:57:05;23.37;;;17.50;;
3207;SDS011;1616;52.394;9.756;2024-03-22T08:59:31;24.23;;;17.10;;
3207;SDS011;1616;52.394;9.756;2024-03-22T09:01:57;25.50;;;16.90;;
3207;SDS011;1616;52.394;9.756;2024-03-22T09:04:25;27.23;;;17.60;;
3207;SDS011;1616;52.394;9.756;2024-03-22T09:06:50;25.73;;;16.83;;
3207;SDS011;1616;52.394;9.756;2024-03-22T09:09:16;26.90;;;17.47;;
3207;SDS011;1616;52.394;9.756;2024-03-22T09:11:43;21.83;;;17.13;;
3207;SDS011;1616;52.394;9.756;2024-03-22T09:14:09;29.80;;;17.20;;
3207;SDS011;1616;52.394;9.756;2024-03-22T09:16:35;28.63;;;16.97;;
3207;SDS011;1616;52.394;9.756;2024-03-22T09:19:00;25.90;;;18.10;;
3207;SDS011;1616;52.394;9.756;2024-03-22T09:21:26;21.23;;;16.30;;
3207;SDS011;1616;52.394;9.756;2024-03-22T09:23:51;29.97;;;17.77;;
3207;SDS011;1616;52.394;9.756;2024-03-22T09:26:17;20.27;;;15.77;;
3207;SDS011;1616;52.394;9.756;2024-03-22T09:28:45;31.73;;;16.80;;
3207;SDS011;1616;52.394;9.756;2024-03-22T09:31:11;25.60;;;17.17;;
3207;SDS011;1616;52.394;9.756;2024-03-22T09:33:37;24.43;;;15.17;;
3207;SDS011;1616;52.394;9.756;2024-03-22T09:36:02;21.50;;;15.90;;
3207;SDS011;1616;52.394;9.756;2024-03-22T09:38:28;21.50;;;15.43;;
3207;SDS011;1616;52.394;9.756;2024-03-22T09:41:00;25.00;;;14.50;;
3207;SDS011;1616;52.394;9.756;2024-03-22T09:43:30;17.67;;;14.00;;
3207;SDS011;1616;52.394;9.756;2024-03-22T09:45:57;16.43;;;13.60;;
3207;SDS011;1616;52.394;9.756;2024-03-22T09:48:23;23.80;;;14.17;;
3207;SDS011;1616;52.394;9.756;2024-03-22T09:50:53;18.53;;;13.37;;
3207;SDS011;1616;52.394;9.756;2024-03-22T09:53:21;18.70;;;13.83;;
3207;SDS011;1616;52.394;9.756;2024-03-22T09:55:48;20.60;;;15.27;;
3207;SDS011;1616;52.394;9.756;2024-03-22T09:58:15;20.40;;;14.67;;
3207;SDS011;1616;52.394;9.756;2024-03-22T10:00:44;22.23;;;14.30;;
3207;SDS011;1616;52.394;9.756;2024-03-22T10:03:10;26.07;;;14.87;;
3207;SDS011;1616;52.394;9.756;2024-03-22T10:05:36;18.50;;;15.77;;
3207;SDS011;1616;52.394;9.756;2024-03-22T10:08:02;19.50;;;14.80;;
3207;SDS011;1616;52.394;9.756;2024-03-22T10:10:30;20.53;;;14.50;;
3207;SDS011;1616;52.394;9.756;2024-03-22T10:12:57;23.63;;;14.67;;
3207;SDS011;1616;52.394;9.756;2024-03-22T10:15:23;21.63;;;16.23;;
3207;SDS011;1616;52.394;9.756;2024-03-22T10:17:49;20.53;;;13.70;;
3207;SDS011;1616;52.394;9.756;2024-03-22T10:20:15;23.20;;;13.87;;
3207;SDS011;1616;52.394;9.756;2024-03-22T10:22:58;16.03;;;13.73;;
3207;SDS011;1616;52.394;9.756;2024-03-22T10:25:28;22.90;;;14.83;;
3207;SDS011;1616;52.394;9.756;2024-03-22T10:27:55;17.57;;;15.50;;
3207;SDS011;1616;52.394;9.756;2024-03-22T10:30:21;19.77;;;14.37;;
3207;SDS011;1616;52.394;9.756;2024-03-22T10:32:49;20.93;;;14.20;;
3207;SDS011;1616;52.394;9.756;2024-03-22T10:35:15;17.47;;;14.60;;
3207;SDS011;1616;52.394;9.756;2024-03-22T10:37:42;17.73;;;14.23;;
3207;SDS011;1616;52.394;9.756;2024-03-22T10:40:09;22.40;;;14.87;;
3207;SDS011;1616;52.394;9.756;2024-03-22T10:42:38;17.87;;;14.13;;
3207;SDS011;1616;52.394;9.756;2024-03-22T10:45:05;19.63;;;13.40;;
3207;SDS011;1616;52.394;9.756;2024-03-22T10:47:32;20.13;;;15.40;;
3207;SDS011;1616;52.394;9.756;2024-03-22T10:52:37;21.50;;;14.73;;
3207;SDS011;1616;52.394;9.756;2024-03-22T10:55:04;19.40;;;14.27;;
3207;SDS011;1616;52.394;9.756;2024-03-22T10:57:33;22.07;;;14.93;;
3207;SDS011;1616;52.394;9.756;2024-03-22T11:00:03;21.30;;;15.43;;
3207;SDS011;1616;52.394;9.756;2024-03-22T11:02:35;18.03;;;14.93;;
3207;SDS011;1616;52.394;9.756;2024-03-22T11:05:04;20.17;;;15.07;;
3207;SDS011;1616;52.394;9.756;2024-03-22T11:07:31;22.07;;;15.53;;
3207;SDS011;1616;52.394;9.756;2024-03-22T11:09:57;17.47;;;13.70;;
3207;SDS011;1616;52.394;9.756;2024-03-22T11:12:24;18.90;;;16.47;;
3207;SDS011;1616;52.394;9.756;2024-03-22T11:14:51;18.40;;;13.07;;
3207;SDS011;1616;52.394;9.756;2024-03-22T11:17:18;17.53;;;15.40;;
3207;SDS011;1616;52.394;9.756;2024-03-22T11:19:43;18.73;;;13.30;;
3207;SDS011;1616;52.394;9.756;2024-03-22T11:22:09;19.90;;;12.73;;
3207;SDS011;1616;52.394;9.756;2024-03-22T11:24:37;21.03;;;14.70;;
3207;SDS011;1616;52.394;9.756;2024-03-22T11:27:03;19.23;;;14.40;;
3207;SDS011;1616;52.394;9.756;2024-03-22T11:29:29;19.87;;;14.37;;
3207;SDS011;1616;52.394;9.756;2024-03-22T11:31:54;28.53;;;14.27;;
3207;SDS011;1616;52.394;9.756;2024-03-22T11:34:20;15.30;;;12.77;;
3207;SDS011;1616;52.394;9.756;2024-03-22T11:36:47;16.70;;;13.37;;
3207;SDS011;1616;52.394;9.756;2024-03-22T11:39:15;18.43;;;13.20;;
3207;SDS011;1616;52.394;9.756;2024-03-22T11:41:40;15.87;;;12.83;;
3207;SDS011;1616;52.394;9.756;2024-03-22T11:44:06;15.20;;;13.70;;
3207;SDS011;1616;52.394;9.756;2024-03-22T11:46:32;16.30;;;14.00;;
3207;SDS011;1616;52.394;9.756;2024-03-22T11:48:58;20.83;;;13.63;;
3207;SDS011;1616;52.394;9.756;2024-03-22T11:51:24;19.60;;;13.50;;
3207;SDS011;1616;52.394;9.756;2024-03-22T11:53:50;18.93;;;13.00;;
3207;SDS011;1616;52.394;9.756;2024-03-22T11:56:19;17.73;;;13.67;;
3207;SDS011;1616;52.394;9.756;2024-03-22T11:58:48;16.73;;;13.57;;
3207;SDS011;1616;52.394;9.756;2024-03-22T12:01:17;17.13;;;14.23;;
3207;SDS011;1616;52.394;9.756;2024-03-22T12:03:45;19.13;;;14.80;;
3207;SDS011;1616;52.394;9.756;2024-03-22T12:06:12;19.87;;;14.57;;
3207;SDS011;1616;52.394;9.756;2024-03-22T12:08:38;29.73;;;13.90;;
3207;SDS011;1616;52.394;9.756;2024-03-22T12:11:07;23.80;;;16.07;;
3207;SDS011;1616;52.394;9.756;2024-03-22T12:13:37;16.80;;;14.60;;
3207;SDS011;1616;52.394;9.756;2024-03-22T12:16:03;23.10;;;16.80;;
3207;SDS011;1616;52.394;9.756;2024-03-22T12:18:30;26.50;;;17.47;;
3207;SDS011;1616;52.394;9.756;2024-03-22T12:20:57;20.03;;;17.27;;
3207;SDS011;1616;52.394;9.756;2024-03-22T12:23:23;25.63;;;17.10;;
3207;SDS011;1616;52.394;9.756;2024-03-22T12:25:49;21.50;;;18.23;;
3207;SDS011;1616;52.394;9.756;2024-03-22T12:28:16;23.90;;;17.47;;
3207;SDS011;1616;52.394;9.756;2024-03-22T12:30:42;24.60;;;17.07;;
3207;SDS011;1616;52.394;9.756;2024-03-22T12:33:08;25.33;;;18.50;;
3207;SDS011;1616;52.394;9.756;2024-03-22T12:35:39;24.43;;;17.87;;
3207;SDS011;1616;52.394;9.756;2024-03-22T12:38:06;24.57;;;18.87;;
3207;SDS011;1616;52.394;9.756;2024-03-22T12:40:32;27.80;;;17.70;;
3207;SDS011;1616;52.394;9.756;2024-03-22T12:42:59;26.23;;;20.33;;
3207;SDS011;1616;52.394;9.756;2024-03-22T12:45:25;27.07;;;19.23;;
3207;SDS011;1616;52.394;9.756;2024-03-22T12:47:51;23.67;;;17.43;;
3207;SDS011;1616;52.394;9.756;2024-03-22T12:50:17;29.20;;;18.03;;
3207;SDS011;1616;52.394;9.756;2024-03-22T12:52:43;26.90;;;18.50;;
3207;SDS011;1616;52.394;9.756;2024-03-22T12:55:10;24.90;;;17.87;;
3207;SDS011;1616;52.394;9.756;2024-03-22T12:57:35;27.07;;;17.27;;
3207;SDS011;1616;52.394;9.756;2024-03-22T13:00:01;29.27;;;18.53;;
3207;SDS011;1616;52.394;9.756;2024-03-22T13:02:29;22.80;;;16.27;;
3207;SDS011;1616;52.394;9.756;2024-03-22T13:04:57;28.07;;;16.50;;
3207;SDS011;1616;52.394;9.756;2024-03-22T13:07:23;23.47;;;18.27;;
3207;SDS011;1616;52.394;9.756;2024-03-22T13:09:50;24.53;;;17.03;;
3207;SDS011;1616;52.394;9.756;2024-03-22T13:12:17;30.63;;;19.00;;
3207;SDS011;1616;52.394;9.756;2024-03-22T13:14:43;24.73;;;17.70;;
3207;SDS011;1616;52.394;9.756;2024-03-22T13:17:09;24.33;;;17.20;;
3207;SDS011;1616;52.394;9.756;2024-03-22T13:19:35;26.50;;;17.73;;
3207;SDS011;1616;52.394;9.756;2024-03-22T13:22:00;21.63;;;17.90;;
3207;SDS011;1616;52.394;9.756;2024-03-22T13:24:26;22.00;;;16.67;;
3207;SDS011;1616;52.394;9.756;2024-03-22T13:26:51;21.70;;;15.77;;
3207;SDS011;1616;52.394;9.756;2024-03-22T13:29:17;25.90;;;16.27;;
3207;SDS011;1616;52.394;9.756;2024-03-22T13:31:43;25.20;;;17.07;;
3207;SDS011;1616;52.394;9.756;2024-03-22T13:34:08;28.13;;;16.77;;
3207;SDS011;1616;52.394;9.756;2024-03-22T13:36:34;23.67;;;16.90;;
3207;SDS011;1616;52.394;9.756;2024-03-22T13:39:04;28.33;;;18.03;;
3207;SDS011;1616;52.394;9.756;2024-03-22T13:41:29;24.40;;;16.50;;
3207;SDS011;1616;52.394;9.756;2024-03-22T13:43:55;25.70;;;17.50;;
3207;SDS011;1616;52.394;9.756;2024-03-22T13:46:21;23.73;;;17.87;;
3207;SDS011;1616;52.394;9.756;2024-03-22T13:48:49;22.00;;;15.47;;
3207;SDS011;1616;52.394;9.756;2024-03-22T13:51:14;24.40;;;16.47;;
3207;SDS011;1616;52.394;9.756;2024-03-22T13:53:40;24.93;;;15.90;;
3207;SDS011;1616;52.394;9.756;2024-03-22T13:56:06;22.00;;;15.50;;
3207;SDS011;1616;52.394;9.756;2024-03-22T13:58:32;18.90;;;15.17;;
3207;SDS011;1616;52.394;9.756;2024-03-22T14:00:57;18.00;;;16.10;;
3207;SDS011;1616;52.394;9.756;2024-03-22T14:03:25;26.37;;;18.47;;
3207;SDS011;1616;52.394;9.756;2024-03-22T14:05:51;24.97;;;17.40;;
3207;SDS011;1616;52.394;9.756;2024-03-22T14:08:17;28.50;;;18.27;;
3207;SDS011;1616;52.394;9.756;2024-03-22T14:10:42;24.53;;;20.37;;
3207;SDS011;1616;52.394;9.756;2024-03-22T14:13:08;27.50;;;19.43;;
3207;SDS011;1616;52.394;9.756;2024-03-22T14:15:33;24.53;;;17.53;;
3207;SDS011;1616;52.394;9.756;2024-03-22T14:18:00;28.13;;;19.40;;
3207;SDS011;1616;52.394;9.756;2024-03-22T14:20:26;30.53;;;18.93;;
3207;SDS011;1616;52.394;9.756;2024-03-22T14:22:52;23.63;;;18.80;;
3207;SDS011;1616;52.394;9.756;2024-03-22T14:25:18;24.27;;;16.70;;
3207;SDS011;1616;52.394;9.756;2024-03-22T14:27:44;20.00;;;17.27;;
3207;SDS011;1616;52.394;9.756;2024-03-22T14:30:14;26.80;;;19.57;;
3207;SDS011;1616;52.394;9.756;2024-03-22T14:32:40;25.07;;;18.47;;
3207;SDS011;1616;52.394;9.756;2024-03-22T14:35:07;29.77;;;20.40;;
3207;SDS011;1616;52.394;9.756;2024-03-22T14:37:33;24.30;;;19.27;;
3207;SDS011;1616;52.394;9.756;2024-03-22T14:39:59;24.87;;;18.97;;
3207;SDS011;1616;52.394;9.756;2024-03-22T14:42:26;24.97;;;18.57;;
3207;SDS011;1616;52.394;9.756;2024-03-22T14:44:52;28.90;;;19.30;;